الصفحة الرئيسية
METAR-TAF:

METAR-TAF

مطار :

مومباي, الهند

دائرة عرض: 19-05-53N, خط طول: 072-50-02E, ارتفاع: 4 متر

مراقبة الطقس الحالي

تاريخ ووقت الإصدار 22 دقيقة قبل الساعة 06:30UTC
ريح 19 عقدة من الشمال الغربي تتزايد حتى 29 عقدة
درجة الحرارة 32°درجة مئوية
الرطوبة 46%
ضغط 1013 hPa
الرؤية: 5000 متر
غيوم قليلة على ارتفاع 10000 قدم
دخان

METAR: VAJJ 310630Z 31019G29KT 5000 FU FEW100 32/19 Q1013 NOSIG

زمن: 12:22 (06:52 UTC)


TAF: مفقودة

أرصاد الطقس والتوقعات من أكثر من 4000 مطار (تقارير الطقس للمطار METAR والتنبؤ بالطقس بالمطارTAF).

المحطات المتاحة هي النقط الصفراء والحمراء على الخريطة.

حرك المؤشر فوق النقطة لمعرفة اسم المحطة.

ثم انقر لمعرفة أرصاد وتوقعات الطقس.

لتغيير الخارطة: اضغط على الأزرار الخضراء مع رمز الصليب الأسود للتكبير. على الزر الأخضر مع شرطة للتصغير، أو على الأسهم الخضراء للخرائط المجاورة.


METAR-TAF: